עמוד ראשי
METAR-TAF:

METAR-TAF

שדות תעופה :

נמל התעופה הבינלאומי המלך פהד

דמאם, ערב הסעודית

קו רוחב: 26-28N, קו אורך: 049-47E, גובה: 22מטר

תצפית מזג אוויר נוכחית

הדו"ח נערך לפני 1 שעות ו 7דקות, בשעה 20:00 UTC
רוח 3קשר מכיוון דרום/דרום-מערב
טמפרטורת 32 צלסיוס
לחות 21%
לחץ 1000 hPa
ראות 10 קילומטר או יותר
ללא עננים שבסיסם נמוך מ 5000 רגל או קומולונימבוס

METAR: OEDF 132000Z 21003KT CAVOK 32/07 Q1000 NOSIG

זמן: 00:07 (21:07 UTC)

תחזית

הדו"ח נערך לפני 5 שעות ו 54דקות, בשעה 15:13 UTC
תחזית בתוקף מ 13 ב 18 UTC עד 14 ב 24 UTC
רוח 3קשר עם כיוונים משתנים
ראות 10 קילומטר או יותר
ללא עננים שבסיסם נמוך מ 5000 רגל או קומולונימבוס
יעשה מ
13 ב 21 UTC עד 13 ב 23 UTC
רוח 7קשר מכיוון מערב/דרום-מערב
יעשה מ
14 ב 05 UTC עד 14 ב 07 UTC
רוח 12קשר מכיוון צפון/צפון-מערב

TAF: OEDF 131513Z 1318/1424 VRB03KT CAVOK BECMG 1321/1323 24007KT BECMG 1405/1407 33012KT

תצפיות ותחזיות מזג אוויר לגבי יותר מ- 4,000 שדות תעופה ברחבי העולם. דוחות METAR ו- TAF.

התחנות הזמינות מסומנות בנקודות צהובות ואדומות על גבי המפה.

העבר את העכבר לנקודה הצבעונית על מנת לראות את שם התחנה.

לאחר מכן, לחץ כדי לראות את תוכן ואת תחזיות מזג האוויר.

כדי לשנות את המפה: לחץ על הכפתורים הירוקים עם הפלוס השחור כדי להתקרב; על הכפתור הירוק עם המקף כדי להתרחק; או בחיצים הירוקים למפות סמוכות.


METAR-TAF: